sensor_id;sensor_type;location;lat;lon;timestamp;pressure;altitude;pressure_sealevel;temperature;humidity
71889;BME280;59762;49.998;14.858;2023-05-16T00:00:05;96915.97;;;10.93;83.64
71889;BME280;59762;49.998;14.858;2023-05-16T00:02:53;96909.31;;;10.81;84.05
71889;BME280;59762;49.998;14.858;2023-05-16T00:05:19;96912.13;;;10.96;82.93
71889;BME280;59762;49.998;14.858;2023-05-16T00:07:45;96907.41;;;11.06;82.28
71889;BME280;59762;49.998;14.858;2023-05-16T00:10:12;96913.59;;;10.98;82.90
71889;BME280;59762;49.998;14.858;2023-05-16T00:12:39;96912.78;;;10.90;82.89
71889;BME280;59762;49.998;14.858;2023-05-16T00:15:06;96916.13;;;10.92;83.54
71889;BME280;59762;49.998;14.858;2023-05-16T00:17:33;96909.16;;;10.83;84.17
71889;BME280;59762;49.998;14.858;2023-05-16T00:20:00;96912.31;;;10.86;83.24
71889;BME280;59762;49.998;14.858;2023-05-16T00:22:26;96915.66;;;10.88;83.15
71889;BME280;59762;49.998;14.858;2023-05-16T00:24:52;96908.69;;;10.79;84.52
71889;BME280;59762;49.998;14.858;2023-05-16T00:27:18;96919.31;;;10.87;82.99
71889;BME280;59762;49.998;14.858;2023-05-16T00:29:43;96913.50;;;10.76;84.00
71889;BME280;59762;49.998;14.858;2023-05-16T00:32:09;96912.69;;;10.75;83.72
71889;BME280;59762;49.998;14.858;2023-05-16T00:34:35;96906.34;;;10.76;83.21
71889;BME280;59762;49.998;14.858;2023-05-16T00:37:01;96911.69;;;10.76;83.32
71889;BME280;59762;49.998;14.858;2023-05-16T00:39:26;96903.81;;;10.83;83.03
71889;BME280;59762;49.998;14.858;2023-05-16T00:41:52;96901.03;;;10.68;84.49
71889;BME280;59762;49.998;14.858;2023-05-16T00:44:18;96903.69;;;10.76;82.88
71889;BME280;59762;49.998;14.858;2023-05-16T00:46:43;96909.03;;;10.68;84.03
71889;BME280;59762;49.998;14.858;2023-05-16T00:49:09;96908.56;;;10.65;83.99
71889;BME280;59762;49.998;14.858;2023-05-16T00:51:37;96912.56;;;10.61;85.49
71889;BME280;59762;49.998;14.858;2023-05-16T00:54:04;96908.72;;;10.63;84.67
71889;BME280;59762;49.998;14.858;2023-05-16T00:56:31;96901.56;;;10.56;85.61
71889;BME280;59762;49.998;14.858;2023-05-16T00:58:57;96909.91;;;10.45;86.60
71889;BME280;59762;49.998;14.858;2023-05-16T01:01:24;96909.13;;;10.36;87.01
71889;BME280;59762;49.998;14.858;2023-05-16T01:03:51;96915.94;;;10.31;87.94
71889;BME280;59762;49.998;14.858;2023-05-16T01:06:18;96905.94;;;10.33;88.23
71889;BME280;59762;49.998;14.858;2023-05-16T01:08:43;96910.63;;;10.31;88.26
71889;BME280;59762;49.998;14.858;2023-05-16T01:11:27;96914.63;;;10.27;88.25
71889;BME280;59762;49.998;14.858;2023-05-16T01:22:51;96923.63;;;10.18;89.15
71889;BME280;59762;49.998;14.858;2023-05-16T01:25:30;96910.63;;;10.15;88.44
71889;BME280;59762;49.998;14.858;2023-05-16T01:27:58;96915.13;;;10.14;88.75
71889;BME280;59762;49.998;14.858;2023-05-16T01:30:23;96906.13;;;10.15;88.58
71889;BME280;59762;49.998;14.858;2023-05-16T01:32:49;96913.44;;;10.13;89.26
71889;BME280;59762;49.998;14.858;2023-05-16T01:35:16;96916.63;;;10.09;89.48
71889;BME280;59762;49.998;14.858;2023-05-16T01:37:51;96925.28;;;10.11;89.65
71889;BME280;59762;49.998;14.858;2023-05-16T01:40:26;96922.28;;;10.14;89.01
71889;BME280;59762;49.998;14.858;2023-05-16T01:42:54;96943.16;;;10.10;89.13
71889;BME280;59762;49.998;14.858;2023-05-16T01:45:25;96948.97;;;10.14;88.90
71889;BME280;59762;49.998;14.858;2023-05-16T01:48:21;96943.63;;;10.14;89.21
71889;BME280;59762;49.998;14.858;2023-05-16T01:50:55;96945.66;;;10.12;89.91
71889;BME280;59762;49.998;14.858;2023-05-16T01:53:27;96948.31;;;10.12;88.83
71889;BME280;59762;49.998;14.858;2023-05-16T01:55:59;96950.63;;;10.07;89.58
71889;BME280;59762;49.998;14.858;2023-05-16T01:58:29;96949.81;;;10.06;89.19
71889;BME280;59762;49.998;14.858;2023-05-16T02:01:01;96953.63;;;10.04;89.49
71889;BME280;59762;49.998;14.858;2023-05-16T02:03:29;96942.44;;;10.00;90.00
71889;BME280;59762;49.998;14.858;2023-05-16T02:05:55;96947.25;;;9.97;89.96
71889;BME280;59762;49.998;14.858;2023-05-16T02:08:23;96952.44;;;9.98;89.70
71889;BME280;59762;49.998;14.858;2023-05-16T02:10:49;96947.09;;;9.98;89.48
71889;BME280;59762;49.998;14.858;2023-05-16T02:13:16;96933.78;;;9.98;90.34
71889;BME280;59762;49.998;14.858;2023-05-16T02:15:41;96937.59;;;9.96;90.20
71889;BME280;59762;49.998;14.858;2023-05-16T02:18:07;96937.75;;;9.94;90.57
71889;BME280;59762;49.998;14.858;2023-05-16T02:20:33;96936.59;;;9.89;90.34
71889;BME280;59762;49.998;14.858;2023-05-16T02:23:00;96933.28;;;9.95;89.79
71889;BME280;59762;49.998;14.858;2023-05-16T02:25:25;96938.59;;;9.95;90.07
71889;BME280;59762;49.998;14.858;2023-05-16T02:27:51;96932.41;;;9.86;91.06
71889;BME280;59762;49.998;14.858;2023-05-16T02:30:17;96939.94;;;9.91;90.07
71889;BME280;59762;49.998;14.858;2023-05-16T02:32:42;96938.25;;;9.90;90.55
71889;BME280;59762;49.998;14.858;2023-05-16T02:35:13;96940.75;;;9.91;91.02
71889;BME280;59762;49.998;14.858;2023-05-16T02:37:40;96939.94;;;9.83;91.18
71889;BME280;59762;49.998;14.858;2023-05-16T02:40:07;96950.94;;;9.88;90.56
71889;BME280;59762;49.998;14.858;2023-05-16T02:42:33;96943.59;;;9.90;90.31
71889;BME280;59762;49.998;14.858;2023-05-16T02:44:59;96953.13;;;9.92;89.63
71889;BME280;59762;49.998;14.858;2023-05-16T02:47:25;96952.75;;;9.87;91.09
71889;BME280;59762;49.998;14.858;2023-05-16T02:49:50;96948.41;;;9.86;91.12
71889;BME280;59762;49.998;14.858;2023-05-16T02:52:17;96949.91;;;9.89;91.08
71889;BME280;59762;49.998;14.858;2023-05-16T02:54:43;96953.25;;;9.83;91.15
71889;BME280;59762;49.998;14.858;2023-05-16T02:57:09;96962.75;;;9.85;90.79
71889;BME280;59762;49.998;14.858;2023-05-16T02:59:34;96963.59;;;9.78;91.95
71889;BME280;59762;49.998;14.858;2023-05-16T03:02:01;96962.09;;;9.75;92.67
71889;BME280;59762;49.998;14.858;2023-05-16T03:04:27;96965.06;;;9.72;92.65
71889;BME280;59762;49.998;14.858;2023-05-16T03:06:52;96970.72;;;9.69;92.70
71889;BME280;59762;49.998;14.858;2023-05-16T03:09:18;96971.06;;;9.66;93.15
71889;BME280;59762;49.998;14.858;2023-05-16T03:11:44;96968.06;;;9.69;92.87
71889;BME280;59762;49.998;14.858;2023-05-16T03:14:10;96970.91;;;9.76;92.25
71889;BME280;59762;49.998;14.858;2023-05-16T03:16:37;96971.06;;;9.66;93.59
71889;BME280;59762;49.998;14.858;2023-05-16T03:19:03;96974.22;;;9.70;92.82
71889;BME280;59762;49.998;14.858;2023-05-16T03:21:29;96979.56;;;9.70;94.21
71889;BME280;59762;49.998;14.858;2023-05-16T03:23:56;96976.06;;;9.69;93.10
71889;BME280;59762;49.998;14.858;2023-05-16T03:26:23;96982.75;;;9.81;92.09
71889;BME280;59762;49.998;14.858;2023-05-16T03:28:50;96982.72;;;9.73;93.96
71889;BME280;59762;49.998;14.858;2023-05-16T03:31:16;96987.41;;;9.87;91.77
71889;BME280;59762;49.998;14.858;2023-05-16T03:33:41;96992.44;;;9.90;90.92
71889;BME280;59762;49.998;14.858;2023-05-16T03:36:08;96992.59;;;9.89;91.94
71889;BME280;59762;49.998;14.858;2023-05-16T03:38:34;96989.91;;;9.89;93.34
71889;BME280;59762;49.998;14.858;2023-05-16T03:41:00;96995.25;;;9.89;91.62
71889;BME280;59762;49.998;14.858;2023-05-16T03:43:25;97000.66;;;10.05;90.89
71889;BME280;59762;49.998;14.858;2023-05-16T03:45:51;97001.66;;;10.12;90.34
71889;BME280;59762;49.998;14.858;2023-05-16T03:48:17;97005.19;;;10.28;90.22
71889;BME280;59762;49.998;14.858;2023-05-16T03:50:43;97011.31;;;10.29;88.71
71889;BME280;59762;49.998;14.858;2023-05-16T03:53:08;97015.50;;;10.47;87.90
71889;BME280;59762;49.998;14.858;2023-05-16T03:55:35;97023.34;;;10.65;87.47
71889;BME280;59762;49.998;14.858;2023-05-16T03:58:00;97014.19;;;10.67;86.63
71889;BME280;59762;49.998;14.858;2023-05-16T04:00:26;97015.63;;;10.94;85.70
71889;BME280;59762;49.998;14.858;2023-05-16T04:02:52;97013.50;;;11.36;82.99
71889;BME280;59762;49.998;14.858;2023-05-16T04:05:17;97009.97;;;11.35;82.39
71889;BME280;59762;49.998;14.858;2023-05-16T04:07:43;97006.91;;;11.62;81.07
71889;BME280;59762;49.998;14.858;2023-05-16T04:10:09;97006.09;;;11.46;82.45
71889;BME280;59762;49.998;14.858;2023-05-16T04:12:35;97022.19;;;11.38;81.59
71889;BME280;59762;49.998;14.858;2023-05-16T04:15:02;97021.78;;;11.02;83.81
71889;BME280;59762;49.998;14.858;2023-05-16T04:17:28;97008.53;;;11.25;82.67
71889;BME280;59762;49.998;14.858;2023-05-16T04:19:54;96997.34;;;11.21;82.92
71889;BME280;59762;49.998;14.858;2023-05-16T04:22:20;97006.22;;;11.22;82.86
71889;BME280;59762;49.998;14.858;2023-05-16T04:24:49;97016.72;;;11.31;81.95
71889;BME280;59762;49.998;14.858;2023-05-16T04:27:15;97020.34;;;11.38;82.64
71889;BME280;59762;49.998;14.858;2023-05-16T04:29:42;97027.50;;;11.46;82.62
71889;BME280;59762;49.998;14.858;2023-05-16T04:32:07;97027.75;;;12.05;79.33
71889;BME280;59762;49.998;14.858;2023-05-16T04:34:34;97024.84;;;12.60;76.78
71889;BME280;59762;49.998;14.858;2023-05-16T04:37:04;97018.94;;;12.19;78.73
71889;BME280;59762;49.998;14.858;2023-05-16T04:39:30;97021.88;;;12.32;78.01
71889;BME280;59762;49.998;14.858;2023-05-16T04:41:56;97022.09;;;12.68;76.68
71889;BME280;59762;49.998;14.858;2023-05-16T04:44:27;97022.97;;;12.60;77.05
71889;BME280;59762;49.998;14.858;2023-05-16T04:46:53;97027.22;;;12.55;77.14
71889;BME280;59762;49.998;14.858;2023-05-16T04:49:20;97025.97;;;12.80;76.44
71889;BME280;59762;49.998;14.858;2023-05-16T04:51:46;97029.28;;;12.67;76.72
71889;BME280;59762;49.998;14.858;2023-05-16T04:54:12;97036.25;;;12.99;75.39
71889;BME280;59762;49.998;14.858;2023-05-16T04:56:37;97049.00;;;12.74;75.89
71889;BME280;59762;49.998;14.858;2023-05-16T04:59:03;97036.53;;;13.04;76.24
71889;BME280;59762;49.998;14.858;2023-05-16T05:01:29;97038.50;;;13.53;73.06
71889;BME280;59762;49.998;14.858;2023-05-16T05:03:55;97040.59;;;13.87;71.98
71889;BME280;59762;49.998;14.858;2023-05-16T05:06:20;97035.72;;;13.61;72.19
71889;BME280;59762;49.998;14.858;2023-05-16T05:08:47;97039.13;;;14.55;70.18
71889;BME280;59762;49.998;14.858;2023-05-16T05:11:12;97036.91;;;13.59;72.51
71889;BME280;59762;49.998;14.858;2023-05-16T05:13:38;97045.75;;;14.03;70.82
71889;BME280;59762;49.998;14.858;2023-05-16T05:16:04;97038.78;;;13.58;72.19
71889;BME280;59762;49.998;14.858;2023-05-16T05:18:30;97037.81;;;14.30;71.32
71889;BME280;59762;49.998;14.858;2023-05-16T05:20:56;97036.75;;;14.67;68.29
71889;BME280;59762;49.998;14.858;2023-05-16T05:23:22;97036.28;;;14.21;69.96
71889;BME280;59762;49.998;14.858;2023-05-16T05:25:49;97032.97;;;14.05;71.20
71889;BME280;59762;49.998;14.858;2023-05-16T05:28:15;97031.53;;;14.59;69.74
71889;BME280;59762;49.998;14.858;2023-05-16T05:30:40;97037.06;;;14.78;67.69
71889;BME280;59762;49.998;14.858;2023-05-16T05:33:06;97027.78;;;14.39;68.17
71889;BME280;59762;49.998;14.858;2023-05-16T05:35:32;97034.06;;;14.67;68.95
71889;BME280;59762;49.998;14.858;2023-05-16T05:37:58;97033.59;;;14.21;70.35
71889;BME280;59762;49.998;14.858;2023-05-16T05:40:24;97026.06;;;14.31;70.18
71889;BME280;59762;49.998;14.858;2023-05-16T05:42:49;97026.41;;;14.64;69.33
71889;BME280;59762;49.998;14.858;2023-05-16T05:45:15;97027.63;;;14.89;67.33
71889;BME280;59762;49.998;14.858;2023-05-16T05:47:42;97023.53;;;14.65;68.03
71889;BME280;59762;49.998;14.858;2023-05-16T05:50:08;97023.81;;;14.77;67.84
71889;BME280;59762;49.998;14.858;2023-05-16T05:52:36;97028.41;;;14.41;70.11
71889;BME280;59762;49.998;14.858;2023-05-16T05:55:02;97030.78;;;14.29;70.27
71889;BME280;59762;49.998;14.858;2023-05-16T05:57:28;97033.22;;;14.10;70.81
71889;BME280;59762;49.998;14.858;2023-05-16T05:59:54;97032.47;;;13.66;73.08
71889;BME280;59762;49.998;14.858;2023-05-16T06:02:20;97038.44;;;13.97;73.80
71889;BME280;59762;49.998;14.858;2023-05-16T06:04:45;97036.97;;;14.93;69.62
71889;BME280;59762;49.998;14.858;2023-05-16T06:07:11;97029.66;;;14.59;69.39
71889;BME280;59762;49.998;14.858;2023-05-16T06:09:37;97035.03;;;14.59;68.72
71889;BME280;59762;49.998;14.858;2023-05-16T06:12:03;97038.97;;;14.84;70.55
71889;BME280;59762;49.998;14.858;2023-05-16T06:14:29;97048.63;;;14.58;69.99
71889;BME280;59762;49.998;14.858;2023-05-16T06:16:54;97041.19;;;14.74;68.08
71889;BME280;59762;49.998;14.858;2023-05-16T06:19:20;97039.94;;;14.98;68.98
71889;BME280;59762;49.998;14.858;2023-05-16T06:21:46;97047.22;;;14.83;70.90
71889;BME280;59762;49.998;14.858;2023-05-16T06:24:11;97047.91;;;14.64;69.11
71889;BME280;59762;49.998;14.858;2023-05-16T06:26:37;97048.72;;;14.64;70.11
71889;BME280;59762;49.998;14.858;2023-05-16T06:29:03;97060.25;;;14.23;72.21
71889;BME280;59762;49.998;14.858;2023-05-16T06:31:30;97057.09;;;14.19;73.14
71889;BME280;59762;49.998;14.858;2023-05-16T06:33:56;97054.47;;;14.40;72.22
71889;BME280;59762;49.998;14.858;2023-05-16T06:36:22;97054.13;;;14.29;71.78
71889;BME280;59762;49.998;14.858;2023-05-16T06:38:48;97052.44;;;14.28;71.84
71889;BME280;59762;49.998;14.858;2023-05-16T06:41:14;97051.72;;;14.19;73.22
71889;BME280;59762;49.998;14.858;2023-05-16T06:43:40;97062.75;;;14.10;73.96
71889;BME280;59762;49.998;14.858;2023-05-16T06:46:06;97056.59;;;13.80;74.19
71889;BME280;59762;49.998;14.858;2023-05-16T06:48:31;97058.78;;;13.91;72.67
71889;BME280;59762;49.998;14.858;2023-05-16T06:50:57;97062.31;;;14.06;72.45
71889;BME280;59762;49.998;14.858;2023-05-16T06:53:22;97056.78;;;13.93;72.48
71889;BME280;59762;49.998;14.858;2023-05-16T06:55:48;97068.13;;;14.10;72.81
71889;BME280;59762;49.998;14.858;2023-05-16T06:58:14;97065.25;;;14.11;72.89
71889;BME280;59762;49.998;14.858;2023-05-16T07:00:40;97061.00;;;14.17;72.78
71889;BME280;59762;49.998;14.858;2023-05-16T07:03:06;97061.28;;;13.93;74.64
71889;BME280;59762;49.998;14.858;2023-05-16T07:05:31;97063.53;;;13.75;73.87
71889;BME280;59762;49.998;14.858;2023-05-16T07:07:57;97060.84;;;13.89;73.42
71889;BME280;59762;49.998;14.858;2023-05-16T07:10:23;97054.78;;;14.02;74.37
71889;BME280;59762;49.998;14.858;2023-05-16T07:12:49;97050.63;;;14.14;74.01
71889;BME280;59762;49.998;14.858;2023-05-16T07:15:15;97055.53;;;14.25;74.41
71889;BME280;59762;49.998;14.858;2023-05-16T07:17:40;97061.97;;;14.30;72.80
71889;BME280;59762;49.998;14.858;2023-05-16T07:20:06;97059.84;;;13.76;74.79
71889;BME280;59762;49.998;14.858;2023-05-16T07:22:35;97056.81;;;14.50;72.67
71889;BME280;59762;49.998;14.858;2023-05-16T07:25:01;97062.38;;;14.69;72.52
71889;BME280;59762;49.998;14.858;2023-05-16T07:27:27;97060.00;;;14.74;72.09
71889;BME280;59762;49.998;14.858;2023-05-16T07:29:53;97062.84;;;15.22;71.33
71889;BME280;59762;49.998;14.858;2023-05-16T07:32:18;97073.56;;;15.15;69.81
71889;BME280;59762;49.998;14.858;2023-05-16T07:34:45;97077.28;;;15.14;72.56
71889;BME280;59762;49.998;14.858;2023-05-16T07:37:10;97076.41;;;15.07;70.62
71889;BME280;59762;49.998;14.858;2023-05-16T07:39:38;97068.28;;;15.28;72.10
71889;BME280;59762;49.998;14.858;2023-05-16T07:42:06;97077.19;;;15.50;69.05
71889;BME280;59762;49.998;14.858;2023-05-16T07:44:32;97086.31;;;15.55;70.31
71889;BME280;59762;49.998;14.858;2023-05-16T07:46:57;97069.06;;;15.77;71.28
71889;BME280;59762;49.998;14.858;2023-05-16T07:49:23;97085.06;;;15.51;70.29
71889;BME280;59762;49.998;14.858;2023-05-16T07:51:49;97084.53;;;15.41;71.19
71889;BME280;59762;49.998;14.858;2023-05-16T07:54:15;97084.16;;;15.44;71.38
71889;BME280;59762;49.998;14.858;2023-05-16T07:56:40;97079.13;;;15.35;70.51
71889;BME280;59762;49.998;14.858;2023-05-16T07:59:06;97086.69;;;15.03;72.17
71889;BME280;59762;49.998;14.858;2023-05-16T08:01:32;97093.78;;;14.83;73.30
71889;BME280;59762;49.998;14.858;2023-05-16T08:03:58;97097.59;;;14.53;73.14
71889;BME280;59762;49.998;14.858;2023-05-16T08:06:23;97102.03;;;14.82;74.28
71889;BME280;59762;49.998;14.858;2023-05-16T08:08:49;97101.81;;;14.62;73.11
71889;BME280;59762;49.998;14.858;2023-05-16T08:11:15;97103.63;;;14.76;74.06
71889;BME280;59762;49.998;14.858;2023-05-16T08:13:41;97098.66;;;15.22;73.52
71889;BME280;59762;49.998;14.858;2023-05-16T08:16:06;97098.81;;;14.93;72.34
71889;BME280;59762;49.998;14.858;2023-05-16T08:18:32;97108.66;;;14.65;74.87
71889;BME280;59762;49.998;14.858;2023-05-16T08:20:58;97106.28;;;14.55;74.89
71889;BME280;59762;49.998;14.858;2023-05-16T08:23:23;97105.53;;;14.61;74.40
71889;BME280;59762;49.998;14.858;2023-05-16T08:25:49;97106.53;;;14.39;75.21
71889;BME280;59762;49.998;14.858;2023-05-16T08:28:15;97111.91;;;14.39;76.87
71889;BME280;59762;49.998;14.858;2023-05-16T08:30:41;97122.38;;;14.91;74.44
71889;BME280;59762;49.998;14.858;2023-05-16T08:33:06;97123.06;;;14.99;73.37
71889;BME280;59762;49.998;14.858;2023-05-16T08:35:32;97129.47;;;15.41;72.15
71889;BME280;59762;49.998;14.858;2023-05-16T08:38:00;97118.66;;;15.62;72.75
71889;BME280;59762;49.998;14.858;2023-05-16T08:40:27;97118.94;;;15.73;71.35
71889;BME280;59762;49.998;14.858;2023-05-16T08:42:53;97122.28;;;15.82;71.33
71889;BME280;59762;49.998;14.858;2023-05-16T08:45:20;97120.88;;;15.86;71.37
71889;BME280;59762;49.998;14.858;2023-05-16T08:47:49;97117.91;;;16.08;72.56
71889;BME280;59762;49.998;14.858;2023-05-16T08:50:15;97120.50;;;15.89;70.69
71889;BME280;59762;49.998;14.858;2023-05-16T08:52:42;97132.78;;;15.70;71.68
71889;BME280;59762;49.998;14.858;2023-05-16T08:55:08;97132.97;;;16.37;70.74
71889;BME280;59762;49.998;14.858;2023-05-16T08:57:34;97130.47;;;16.35;68.95
71889;BME280;59762;49.998;14.858;2023-05-16T09:00:01;97131.50;;;16.81;68.36
71889;BME280;59762;49.998;14.858;2023-05-16T09:02:32;97131.28;;;16.83;69.44
71889;BME280;59762;49.998;14.858;2023-05-16T09:04:58;97126.22;;;16.13;71.04
71889;BME280;59762;49.998;14.858;2023-05-16T09:07:24;97125.41;;;16.19;69.80
71889;BME280;59762;49.998;14.858;2023-05-16T09:09:50;97136.00;;;16.68;69.71
71889;BME280;59762;49.998;14.858;2023-05-16T09:12:16;97130.66;;;16.87;69.35
71889;BME280;59762;49.998;14.858;2023-05-16T09:14:41;97139.91;;;16.52;67.77
71889;BME280;59762;49.998;14.858;2023-05-16T09:17:08;97134.75;;;16.23;68.87
71889;BME280;59762;49.998;14.858;2023-05-16T09:19:43;97137.50;;;15.96;69.72
71889;BME280;59762;49.998;14.858;2023-05-16T09:22:13;97130.44;;;16.76;68.64
71889;BME280;59762;49.998;14.858;2023-05-16T09:24:41;97134.06;;;17.28;68.08
71889;BME280;59762;49.998;14.858;2023-05-16T09:27:14;97141.59;;;16.26;68.89
71889;BME280;59762;49.998;14.858;2023-05-16T09:29:44;97146.00;;;16.33;68.25
71889;BME280;59762;49.998;14.858;2023-05-16T09:32:12;97145.16;;;15.92;70.34
71889;BME280;59762;49.998;14.858;2023-05-16T09:34:42;97127.97;;;15.93;67.68
71889;BME280;59762;49.998;14.858;2023-05-16T09:37:10;97133.25;;;16.48;68.76
71889;BME280;59762;49.998;14.858;2023-05-16T09:39:39;97116.94;;;16.76;66.61
71889;BME280;59762;49.998;14.858;2023-05-16T09:42:10;97124.97;;;16.56;67.99
71889;BME280;59762;49.998;14.858;2023-05-16T09:44:36;97118.16;;;16.20;70.71
71889;BME280;59762;49.998;14.858;2023-05-16T09:47:02;97131.84;;;16.25;70.81
71889;BME280;59762;49.998;14.858;2023-05-16T09:49:28;97132.41;;;16.07;73.53
71889;BME280;59762;49.998;14.858;2023-05-16T09:51:55;97112.88;;;15.99;72.34
71889;BME280;59762;49.998;14.858;2023-05-16T09:54:33;97135.63;;;15.62;73.58
71889;BME280;59762;49.998;14.858;2023-05-16T09:57:00;97135.81;;;15.88;72.08
71889;BME280;59762;49.998;14.858;2023-05-16T09:59:38;97139.72;;;16.20;69.45
71889;BME280;59762;49.998;14.858;2023-05-16T10:02:05;97140.09;;;15.83;69.94
71889;BME280;59762;49.998;14.858;2023-05-16T10:04:34;97137.72;;;15.94;70.91
71889;BME280;59762;49.998;14.858;2023-05-16T10:07:04;97131.41;;;16.15;68.70
71889;BME280;59762;49.998;14.858;2023-05-16T10:09:31;97129.19;;;16.31;69.33
71889;BME280;59762;49.998;14.858;2023-05-16T10:12:00;97124.47;;;16.33;68.11
71889;BME280;59762;49.998;14.858;2023-05-16T10:14:35;97119.19;;;16.19;70.65
71889;BME280;59762;49.998;14.858;2023-05-16T10:17:02;97128.03;;;16.06;72.69
71889;BME280;59762;49.998;14.858;2023-05-16T10:19:31;97134.41;;;15.65;72.34
71889;BME280;59762;49.998;14.858;2023-05-16T10:21:59;97123.13;;;16.16;69.57
71889;BME280;59762;49.998;14.858;2023-05-16T10:24:47;97118.66;;;16.36;68.19
71889;BME280;59762;49.998;14.858;2023-05-16T10:27:16;97101.44;;;16.31;67.21
71889;BME280;59762;49.998;14.858;2023-05-16T10:29:43;97105.31;;;16.22;67.67
71889;BME280;59762;49.998;14.858;2023-05-16T10:32:09;97105.94;;;16.17;67.24
71889;BME280;59762;49.998;14.858;2023-05-16T10:34:36;97103.28;;;16.30;67.93
71889;BME280;59762;49.998;14.858;2023-05-16T10:37:04;97099.69;;;16.64;67.81
71889;BME280;59762;49.998;14.858;2023-05-16T10:39:31;97097.88;;;16.71;67.28
71889;BME280;59762;49.998;14.858;2023-05-16T10:41:57;97087.22;;;16.50;67.88
71889;BME280;59762;49.998;14.858;2023-05-16T10:44:24;97096.88;;;16.38;68.55
71889;BME280;59762;49.998;14.858;2023-05-16T10:46:50;97080.78;;;16.51;67.33
71889;BME280;59762;49.998;14.858;2023-05-16T10:49:23;97070.41;;;16.48;64.64
71889;BME280;59762;49.998;14.858;2023-05-16T10:54:35;97066.72;;;16.08;70.82
71889;BME280;59762;49.998;14.858;2023-05-16T10:57:17;97073.53;;;15.98;70.97
71889;BME280;59762;49.998;14.858;2023-05-16T10:59:46;97077.44;;;15.95;69.68
71889;BME280;59762;49.998;14.858;2023-05-16T11:04:48;97078.56;;;15.73;70.56
71889;BME280;59762;49.998;14.858;2023-05-16T11:07:16;97076.31;;;15.49;73.26
71889;BME280;59762;49.998;14.858;2023-05-16T11:09:45;97077.03;;;15.58;72.65
71889;BME280;59762;49.998;14.858;2023-05-16T11:12:19;97074.94;;;15.60;73.67
71889;BME280;59762;49.998;14.858;2023-05-16T11:14:48;97076.03;;;15.65;75.20
71889;BME280;59762;49.998;14.858;2023-05-16T11:17:20;97073.09;;;15.60;73.16
71889;BME280;59762;49.998;14.858;2023-05-16T11:19:53;97082.16;;;15.53;72.59
71889;BME280;59762;49.998;14.858;2023-05-16T11:22:24;97089.44;;;15.10;74.33
71889;BME280;59762;49.998;14.858;2023-05-16T11:27:24;97099.16;;;14.83;75.83
71889;BME280;59762;49.998;14.858;2023-05-16T11:29:51;97095.88;;;14.88;75.40
71889;BME280;59762;49.998;14.858;2023-05-16T11:32:21;97089.22;;;14.84;75.91
71889;BME280;59762;49.998;14.858;2023-05-16T11:34:48;97099.09;;;14.98;75.72
71889;BME280;59762;49.998;14.858;2023-05-16T11:37:15;97113.41;;;14.84;76.53
71889;BME280;59762;49.998;14.858;2023-05-16T11:39:41;97104.25;;;14.57;77.18
71889;BME280;59762;49.998;14.858;2023-05-16T11:42:07;97106.38;;;14.47;77.22
71889;BME280;59762;49.998;14.858;2023-05-16T11:44:34;97106.88;;;14.72;77.14
71889;BME280;59762;49.998;14.858;2023-05-16T11:47:00;97114.56;;;14.75;76.89
71889;BME280;59762;49.998;14.858;2023-05-16T11:49:27;97125.06;;;14.91;76.88
71889;BME280;59762;49.998;14.858;2023-05-16T11:51:53;97135.16;;;15.10;76.05
71889;BME280;59762;49.998;14.858;2023-05-16T11:54:19;97131.97;;;14.79;75.79
71889;BME280;59762;49.998;14.858;2023-05-16T11:56:45;97135.84;;;14.55;75.90
71889;BME280;59762;49.998;14.858;2023-05-16T11:59:11;97132.28;;;14.19;77.58
71889;BME280;59762;49.998;14.858;2023-05-16T12:01:38;97138.88;;;14.31;79.56
71889;BME280;59762;49.998;14.858;2023-05-16T12:04:08;97143.97;;;14.26;78.79
71889;BME280;59762;49.998;14.858;2023-05-16T12:06:35;97151.00;;;14.27;79.18
71889;BME280;59762;49.998;14.858;2023-05-16T12:09:03;97165.53;;;14.04;78.73
71889;BME280;59762;49.998;14.858;2023-05-16T12:11:39;97162.00;;;13.89;79.41
71889;BME280;59762;49.998;14.858;2023-05-16T12:14:06;97175.13;;;13.69;80.33
71889;BME280;59762;49.998;14.858;2023-05-16T12:16:34;97181.47;;;13.54;81.75
71889;BME280;59762;49.998;14.858;2023-05-16T12:19:02;97183.06;;;13.48;82.57
71889;BME280;59762;49.998;14.858;2023-05-16T12:21:32;97179.19;;;13.51;83.37
71889;BME280;59762;49.998;14.858;2023-05-16T12:23:58;97169.53;;;13.42;82.26
71889;BME280;59762;49.998;14.858;2023-05-16T12:26:25;97174.41;;;13.38;81.33
71889;BME280;59762;49.998;14.858;2023-05-16T12:28:53;97170.44;;;13.34;81.87
71889;BME280;59762;49.998;14.858;2023-05-16T12:31:23;97171.06;;;13.22;82.71
71889;BME280;59762;49.998;14.858;2023-05-16T12:33:52;97166.88;;;13.19;82.71
71889;BME280;59762;49.998;14.858;2023-05-16T12:36:18;97167.84;;;13.04;83.89
71889;BME280;59762;49.998;14.858;2023-05-16T12:38:47;97166.22;;;12.95;84.38
71889;BME280;59762;49.998;14.858;2023-05-16T12:41:20;97160.34;;;12.91;82.80
71889;BME280;59762;49.998;14.858;2023-05-16T12:43:47;97165.53;;;12.93;82.73
71889;BME280;59762;49.998;14.858;2023-05-16T12:46:13;97157.50;;;12.93;83.48
71889;BME280;59762;49.998;14.858;2023-05-16T12:48:39;97152.94;;;12.79;84.05
71889;BME280;59762;49.998;14.858;2023-05-16T12:51:18;97150.91;;;12.81;84.43
71889;BME280;59762;49.998;14.858;2023-05-16T12:53:46;97154.16;;;12.68;84.52
71889;BME280;59762;49.998;14.858;2023-05-16T12:56:14;97157.94;;;12.82;83.32
71889;BME280;59762;49.998;14.858;2023-05-16T12:58:42;97144.47;;;12.67;84.81
71889;BME280;59762;49.998;14.858;2023-05-16T13:01:08;97150.84;;;12.66;83.51
71889;BME280;59762;49.998;14.858;2023-05-16T13:03:34;97152.16;;;12.70;83.52
71889;BME280;59762;49.998;14.858;2023-05-16T13:06:01;97151.72;;;12.59;84.32